sensor_id;sensor_type;location;lat;lon;timestamp;pressure;altitude;pressure_sealevel;temperature;humidity
59531;BME280;45349;48.692;8.186;2022-08-04T00:01:11;98351.78;;;24.79;45.63
59531;BME280;45349;48.692;8.186;2022-08-04T00:03:42;98354.16;;;24.75;45.68
59531;BME280;45349;48.692;8.186;2022-08-04T00:06:17;98354.56;;;24.67;46.19
59531;BME280;45349;48.692;8.186;2022-08-04T00:08:48;98355.81;;;24.59;47.05
59531;BME280;45349;48.692;8.186;2022-08-04T00:11:19;98355.06;;;24.42;47.06
59531;BME280;45349;48.692;8.186;2022-08-04T00:13:53;98346.41;;;24.29;47.54
59531;BME280;45349;48.692;8.186;2022-08-04T00:16:22;98343.84;;;24.17;47.51
59531;BME280;45349;48.692;8.186;2022-08-04T00:18:51;98346.94;;;24.09;47.91
59531;BME280;45349;48.692;8.186;2022-08-04T00:21:19;98359.28;;;23.98;48.20
59531;BME280;45349;48.692;8.186;2022-08-04T00:23:48;98348.50;;;23.88;48.18
59531;BME280;45349;48.692;8.186;2022-08-04T00:26:15;98360.94;;;23.82;48.15
59531;BME280;45349;48.692;8.186;2022-08-04T00:28:42;98358.69;;;23.74;48.48
59531;BME280;45349;48.692;8.186;2022-08-04T00:31:11;98350.53;;;23.64;49.24
59531;BME280;45349;48.692;8.186;2022-08-04T00:33:42;98352.38;;;23.63;49.80
59531;BME280;45349;48.692;8.186;2022-08-04T00:36:10;98352.47;;;23.51;49.67
59531;BME280;45349;48.692;8.186;2022-08-04T00:38:39;98352.41;;;23.46;49.60
59531;BME280;45349;48.692;8.186;2022-08-04T00:41:16;98359.97;;;23.37;49.89
59531;BME280;45349;48.692;8.186;2022-08-04T00:44:01;98362.47;;;23.27;50.59
59531;BME280;45349;48.692;8.186;2022-08-04T00:46:46;98357.53;;;23.19;51.64
59531;BME280;45349;48.692;8.186;2022-08-04T00:49:32;98357.91;;;23.10;51.61
59531;BME280;45349;48.692;8.186;2022-08-04T00:52:17;98367.31;;;23.01;51.74
59531;BME280;45349;48.692;8.186;2022-08-04T00:55:02;98361.09;;;22.95;52.04
59531;BME280;45349;48.692;8.186;2022-08-04T00:57:39;98355.56;;;22.85;52.15
59531;BME280;45349;48.692;8.186;2022-08-04T01:00:12;98361.63;;;22.80;52.71
59531;BME280;45349;48.692;8.186;2022-08-04T01:02:57;98362.81;;;22.73;52.31
59531;BME280;45349;48.692;8.186;2022-08-04T01:05:33;98369.56;;;22.63;52.59
59531;BME280;45349;48.692;8.186;2022-08-04T01:08:14;98377.19;;;22.60;53.08
59531;BME280;45349;48.692;8.186;2022-08-04T01:10:56;98371.44;;;22.51;53.34
59531;BME280;45349;48.692;8.186;2022-08-04T01:13:55;98378.13;;;22.41;54.24
59531;BME280;45349;48.692;8.186;2022-08-04T01:16:26;98381.84;;;22.40;54.59
59531;BME280;45349;48.692;8.186;2022-08-04T01:18:58;98378.50;;;22.33;54.85
59531;BME280;45349;48.692;8.186;2022-08-04T01:21:53;98375.16;;;22.26;55.44
59531;BME280;45349;48.692;8.186;2022-08-04T01:24:29;98364.88;;;22.18;55.62
59531;BME280;45349;48.692;8.186;2022-08-04T01:27:05;98370.91;;;22.13;55.85
59531;BME280;45349;48.692;8.186;2022-08-04T01:29:38;98369.75;;;22.09;56.04
59531;BME280;45349;48.692;8.186;2022-08-04T01:32:12;98373.31;;;22.03;56.54
59531;BME280;45349;48.692;8.186;2022-08-04T01:34:51;98374.47;;;21.95;56.24
59531;BME280;45349;48.692;8.186;2022-08-04T01:37:29;98365.59;;;21.89;56.13
59531;BME280;45349;48.692;8.186;2022-08-04T01:40:03;98367.09;;;21.85;56.22
59531;BME280;45349;48.692;8.186;2022-08-04T01:42:32;98363.28;;;21.81;56.51
59531;BME280;45349;48.692;8.186;2022-08-04T01:45:02;98364.53;;;21.78;56.79
59531;BME280;45349;48.692;8.186;2022-08-04T01:47:33;98364.53;;;21.78;57.21
59531;BME280;45349;48.692;8.186;2022-08-04T01:50:04;98364.19;;;21.75;57.14
59531;BME280;45349;48.692;8.186;2022-08-04T01:52:33;98360.16;;;21.72;57.29
59531;BME280;45349;48.692;8.186;2022-08-04T01:55:02;98360.38;;;21.71;57.23
59531;BME280;45349;48.692;8.186;2022-08-04T01:57:31;98359.22;;;21.66;57.51
59531;BME280;45349;48.692;8.186;2022-08-04T02:00:00;98353.19;;;21.59;57.29
59531;BME280;45349;48.692;8.186;2022-08-04T02:02:29;98359.88;;;21.62;57.75
59531;BME280;45349;48.692;8.186;2022-08-04T02:04:56;98369.56;;;21.56;57.71
59531;BME280;45349;48.692;8.186;2022-08-04T02:07:31;98364.97;;;21.51;57.66
59531;BME280;45349;48.692;8.186;2022-08-04T02:10:04;98369.00;;;21.54;57.63
59531;BME280;45349;48.692;8.186;2022-08-04T02:12:41;98368.88;;;21.49;57.71
59531;BME280;45349;48.692;8.186;2022-08-04T02:15:15;98363.78;;;21.47;57.69
59531;BME280;45349;48.692;8.186;2022-08-04T02:17:53;98359.41;;;21.41;57.86
59531;BME280;45349;48.692;8.186;2022-08-04T02:20:23;98359.84;;;21.38;58.40
59531;BME280;45349;48.692;8.186;2022-08-04T02:22:54;98361.09;;;21.35;58.51
59531;BME280;45349;48.692;8.186;2022-08-04T02:25:24;98361.22;;;21.29;58.47
59531;BME280;45349;48.692;8.186;2022-08-04T02:28:04;98353.47;;;21.27;58.16
59531;BME280;45349;48.692;8.186;2022-08-04T02:30:49;98351.50;;;21.22;58.20
59531;BME280;45349;48.692;8.186;2022-08-04T02:33:22;98344.00;;;21.19;57.86
59531;BME280;45349;48.692;8.186;2022-08-04T02:35:54;98353.00;;;21.18;58.57
59531;BME280;45349;48.692;8.186;2022-08-04T02:38:28;98350.56;;;21.17;58.67
59531;BME280;45349;48.692;8.186;2022-08-04T02:40:57;98356.34;;;21.14;58.77
59531;BME280;45349;48.692;8.186;2022-08-04T02:43:27;98355.84;;;21.05;58.57
59531;BME280;45349;48.692;8.186;2022-08-04T02:45:56;98358.94;;;21.02;58.29
59531;BME280;45349;48.692;8.186;2022-08-04T02:48:23;98355.34;;;20.96;58.93
59531;BME280;45349;48.692;8.186;2022-08-04T02:50:52;98359.19;;;21.00;58.92
59531;BME280;45349;48.692;8.186;2022-08-04T02:53:21;98345.41;;;20.91;58.52
59531;BME280;45349;48.692;8.186;2022-08-04T02:55:50;98350.81;;;20.85;58.40
59531;BME280;45349;48.692;8.186;2022-08-04T02:58:19;98352.78;;;20.89;58.82
59531;BME280;45349;48.692;8.186;2022-08-04T03:00:49;98350.81;;;20.85;58.71
59531;BME280;45349;48.692;8.186;2022-08-04T03:03:24;98349.63;;;20.81;58.85
59531;BME280;45349;48.692;8.186;2022-08-04T03:09:20;98347.84;;;20.74;59.01
59531;BME280;45349;48.692;8.186;2022-08-04T03:12:20;98355.22;;;20.72;58.97
59531;BME280;45349;48.692;8.186;2022-08-04T03:15:16;98354.63;;;20.70;59.45
59531;BME280;45349;48.692;8.186;2022-08-04T03:18:06;98355.66;;;20.69;59.06
59531;BME280;45349;48.692;8.186;2022-08-04T03:21:04;98356.47;;;20.70;58.88
59531;BME280;45349;48.692;8.186;2022-08-04T03:27:18;98370.25;;;20.60;58.82
59531;BME280;45349;48.692;8.186;2022-08-04T03:30:03;98368.28;;;20.55;58.74
59531;BME280;45349;48.692;8.186;2022-08-04T03:35:56;98360.25;;;20.43;59.04
59531;BME280;45349;48.692;8.186;2022-08-04T03:42:05;98363.13;;;20.42;59.67
59531;BME280;45349;48.692;8.186;2022-08-04T03:47:42;98359.66;;;20.41;60.18
59531;BME280;45349;48.692;8.186;2022-08-04T03:50:34;98357.59;;;20.43;60.02
59531;BME280;45349;48.692;8.186;2022-08-04T03:53:24;98356.28;;;20.34;60.01
59531;BME280;45349;48.692;8.186;2022-08-04T03:56:25;98349.00;;;20.29;60.28
59531;BME280;45349;48.692;8.186;2022-08-04T03:59:08;98356.06;;;20.35;60.55
59531;BME280;45349;48.692;8.186;2022-08-04T04:01:59;98355.09;;;20.30;60.68
59531;BME280;45349;48.692;8.186;2022-08-04T04:04:46;98356.81;;;20.24;60.99
59531;BME280;45349;48.692;8.186;2022-08-04T04:07:37;98356.72;;;20.31;60.02
59531;BME280;45349;48.692;8.186;2022-08-04T04:10:31;98363.63;;;20.32;59.33
59531;BME280;45349;48.692;8.186;2022-08-04T04:13:27;98358.56;;;20.30;59.76
59531;BME280;45349;48.692;8.186;2022-08-04T04:16:16;98354.66;;;20.33;59.21
59531;BME280;45349;48.692;8.186;2022-08-04T04:19:13;98352.97;;;20.39;59.42
59531;BME280;45349;48.692;8.186;2022-08-04T04:21:59;98362.09;;;20.43;59.12
59531;BME280;45349;48.692;8.186;2022-08-04T04:25:03;98360.41;;;20.48;58.20
59531;BME280;45349;48.692;8.186;2022-08-04T04:27:39;98361.22;;;20.49;58.36
59531;BME280;45349;48.692;8.186;2022-08-04T04:30:12;98364.91;;;20.48;59.15
59531;BME280;45349;48.692;8.186;2022-08-04T04:33:12;98361.56;;;20.53;58.29
59531;BME280;45349;48.692;8.186;2022-08-04T04:35:54;98366.22;;;20.57;59.25
59531;BME280;45349;48.692;8.186;2022-08-04T04:38:37;98367.59;;;20.60;59.03
59531;BME280;45349;48.692;8.186;2022-08-04T04:41:20;98372.47;;;20.63;59.89
59531;BME280;45349;48.692;8.186;2022-08-04T04:44:07;98376.38;;;20.60;59.44
59531;BME280;45349;48.692;8.186;2022-08-04T04:46:42;98362.69;;;20.63;59.82
59531;BME280;45349;48.692;8.186;2022-08-04T04:49:19;98372.03;;;20.66;58.96
59531;BME280;45349;48.692;8.186;2022-08-04T04:51:50;98367.78;;;20.77;59.13
59531;BME280;45349;48.692;8.186;2022-08-04T04:54:25;98371.06;;;20.79;59.39
59531;BME280;45349;48.692;8.186;2022-08-04T04:57:02;98383.69;;;20.84;58.40
59531;BME280;45349;48.692;8.186;2022-08-04T04:59:34;98375.28;;;20.87;58.36
59531;BME280;45349;48.692;8.186;2022-08-04T05:02:18;98380.13;;;20.90;59.20
59531;BME280;45349;48.692;8.186;2022-08-04T05:05:20;98382.69;;;20.97;58.71
59531;BME280;45349;48.692;8.186;2022-08-04T05:08:03;98377.88;;;21.05;59.05
59531;BME280;45349;48.692;8.186;2022-08-04T05:10:45;98373.97;;;21.08;58.40
59531;BME280;45349;48.692;8.186;2022-08-04T05:13:33;98373.75;;;21.09;59.01
59531;BME280;45349;48.692;8.186;2022-08-04T05:16:06;98381.84;;;21.15;58.13
59531;BME280;45349;48.692;8.186;2022-08-04T05:18:37;98381.72;;;21.21;58.52
59531;BME280;45349;48.692;8.186;2022-08-04T05:21:17;98377.47;;;21.20;58.57
59531;BME280;45349;48.692;8.186;2022-08-04T05:23:48;98385.56;;;21.26;58.04
59531;BME280;45349;48.692;8.186;2022-08-04T05:26:18;98386.84;;;21.35;58.20
59531;BME280;45349;48.692;8.186;2022-08-04T05:28:53;98385.56;;;21.37;58.22
59531;BME280;45349;48.692;8.186;2022-08-04T05:31:24;98392.28;;;21.40;59.04
59531;BME280;45349;48.692;8.186;2022-08-04T05:33:54;98395.28;;;21.44;58.75
59531;BME280;45349;48.692;8.186;2022-08-04T05:36:26;98400.59;;;21.44;57.50
59531;BME280;45349;48.692;8.186;2022-08-04T05:38:56;98402.81;;;21.47;58.68
59531;BME280;45349;48.692;8.186;2022-08-04T05:41:25;98402.13;;;21.51;58.75
59531;BME280;45349;48.692;8.186;2022-08-04T05:43:52;98408.81;;;21.54;58.40
59531;BME280;45349;48.692;8.186;2022-08-04T05:46:20;98403.22;;;21.62;57.64
59531;BME280;45349;48.692;8.186;2022-08-04T05:48:48;98403.34;;;21.67;57.41
59531;BME280;45349;48.692;8.186;2022-08-04T05:51:16;98406.13;;;21.73;57.21
59531;BME280;45349;48.692;8.186;2022-08-04T05:53:44;98407.28;;;21.77;58.24
59531;BME280;45349;48.692;8.186;2022-08-04T05:56:13;98409.09;;;21.76;58.68
59531;BME280;45349;48.692;8.186;2022-08-04T05:58:43;98412.34;;;21.78;58.46
59531;BME280;45349;48.692;8.186;2022-08-04T06:01:11;98411.69;;;21.83;57.15
59531;BME280;45349;48.692;8.186;2022-08-04T06:03:39;98413.63;;;21.88;57.98
59531;BME280;45349;48.692;8.186;2022-08-04T06:06:10;98415.25;;;21.89;58.09
59531;BME280;45349;48.692;8.186;2022-08-04T06:08:37;98413.53;;;21.94;58.16
59531;BME280;45349;48.692;8.186;2022-08-04T06:11:07;98416.88;;;22.02;58.09
59531;BME280;45349;48.692;8.186;2022-08-04T06:13:40;98418.97;;;22.11;57.81
59531;BME280;45349;48.692;8.186;2022-08-04T06:16:08;98423.25;;;22.24;57.08
59531;BME280;45349;48.692;8.186;2022-08-04T06:18:38;98419.75;;;22.36;57.42
59531;BME280;45349;48.692;8.186;2022-08-04T06:21:09;98422.91;;;22.45;56.98
59531;BME280;45349;48.692;8.186;2022-08-04T06:23:38;98418.00;;;22.53;56.35
59531;BME280;45349;48.692;8.186;2022-08-04T06:26:06;98421.94;;;22.63;55.58
59531;BME280;45349;48.692;8.186;2022-08-04T06:28:53;98426.41;;;22.74;55.52
59531;BME280;45349;48.692;8.186;2022-08-04T06:31:22;98427.53;;;22.90;54.12
59531;BME280;45349;48.692;8.186;2022-08-04T06:34:10;98422.94;;;23.14;54.67
59531;BME280;45349;48.692;8.186;2022-08-04T06:36:40;98430.81;;;23.38;53.15
59531;BME280;45349;48.692;8.186;2022-08-04T06:39:08;98424.81;;;23.60;53.05
59531;BME280;45349;48.692;8.186;2022-08-04T06:41:36;98429.19;;;23.83;52.33
59531;BME280;45349;48.692;8.186;2022-08-04T06:44:06;98426.63;;;24.06;51.35
59531;BME280;45349;48.692;8.186;2022-08-04T06:46:35;98429.31;;;24.28;50.46
59531;BME280;45349;48.692;8.186;2022-08-04T06:49:21;98434.66;;;24.50;50.08
59531;BME280;45349;48.692;8.186;2022-08-04T06:51:52;98433.88;;;24.72;49.62
59531;BME280;45349;48.692;8.186;2022-08-04T06:54:21;98435.75;;;24.94;48.81
59531;BME280;45349;48.692;8.186;2022-08-04T06:56:48;98429.78;;;25.09;49.08
59531;BME280;45349;48.692;8.186;2022-08-04T06:59:17;98435.03;;;25.26;48.88
59531;BME280;45349;48.692;8.186;2022-08-04T07:01:44;98436.25;;;25.40;48.40
59531;BME280;45349;48.692;8.186;2022-08-04T07:04:12;98435.28;;;25.52;48.54
59531;BME280;45349;48.692;8.186;2022-08-04T07:07:00;98441.03;;;25.66;48.49
59531;BME280;45349;48.692;8.186;2022-08-04T07:09:27;98434.44;;;25.78;48.00
59531;BME280;45349;48.692;8.186;2022-08-04T07:11:54;98442.59;;;25.94;46.57
59531;BME280;45349;48.692;8.186;2022-08-04T07:14:21;98427.16;;;26.06;46.75
59531;BME280;45349;48.692;8.186;2022-08-04T07:16:49;98433.16;;;26.19;46.19
59531;BME280;45349;48.692;8.186;2022-08-04T07:19:16;98439.16;;;26.36;45.11
59531;BME280;45349;48.692;8.186;2022-08-04T07:21:43;98437.84;;;26.44;45.42
59531;BME280;45349;48.692;8.186;2022-08-04T07:24:11;98434.41;;;26.54;45.85
59531;BME280;45349;48.692;8.186;2022-08-04T07:26:38;98429.59;;;26.56;45.98
59531;BME280;45349;48.692;8.186;2022-08-04T07:29:04;98437.66;;;26.66;45.81
59531;BME280;45349;48.692;8.186;2022-08-04T07:31:32;98444.09;;;26.71;45.48
59531;BME280;45349;48.692;8.186;2022-08-04T07:34:00;98442.81;;;26.78;46.03
59531;BME280;45349;48.692;8.186;2022-08-04T07:36:27;98447.44;;;26.93;44.60
59531;BME280;45349;48.692;8.186;2022-08-04T07:38:53;98441.28;;;27.03;44.73
59531;BME280;45349;48.692;8.186;2022-08-04T07:41:23;98448.56;;;27.13;45.02
59531;BME280;45349;48.692;8.186;2022-08-04T07:43:50;98444.84;;;27.19;45.65
59531;BME280;45349;48.692;8.186;2022-08-04T07:46:22;98454.50;;;27.25;45.25
59531;BME280;45349;48.692;8.186;2022-08-04T07:48:50;98455.28;;;27.21;45.01
59531;BME280;45349;48.692;8.186;2022-08-04T07:51:17;98456.34;;;27.25;45.27
59531;BME280;45349;48.692;8.186;2022-08-04T07:53:46;98458.78;;;27.32;45.14
59531;BME280;45349;48.692;8.186;2022-08-04T07:56:14;98457.19;;;27.31;44.82
59531;BME280;45349;48.692;8.186;2022-08-04T07:58:43;98464.41;;;27.30;45.75
59531;BME280;45349;48.692;8.186;2022-08-04T08:01:10;98462.56;;;27.36;44.76
59531;BME280;45349;48.692;8.186;2022-08-04T08:03:38;98463.88;;;27.33;44.97
59531;BME280;45349;48.692;8.186;2022-08-04T08:06:06;98462.03;;;27.39;44.97
59531;BME280;45349;48.692;8.186;2022-08-04T08:08:36;98452.97;;;27.50;44.74
59531;BME280;45349;48.692;8.186;2022-08-04T08:11:03;98460.44;;;27.64;44.29
59531;BME280;45349;48.692;8.186;2022-08-04T08:13:31;98452.94;;;27.71;44.44
59531;BME280;45349;48.692;8.186;2022-08-04T08:16:00;98459.13;;;27.82;43.80
59531;BME280;45349;48.692;8.186;2022-08-04T08:18:28;98452.41;;;27.84;43.22
59531;BME280;45349;48.692;8.186;2022-08-04T08:20:55;98458.84;;;27.99;43.10
59531;BME280;45349;48.692;8.186;2022-08-04T08:23:22;98449.19;;;28.03;42.06
59531;BME280;45349;48.692;8.186;2022-08-04T08:25:50;98458.31;;;28.23;42.45
59531;BME280;45349;48.692;8.186;2022-08-04T08:28:17;98451.84;;;28.29;41.67
59531;BME280;45349;48.692;8.186;2022-08-04T08:30:44;98457.19;;;28.45;42.51
59531;BME280;45349;48.692;8.186;2022-08-04T08:33:14;98453.03;;;28.73;40.53
59531;BME280;45349;48.692;8.186;2022-08-04T08:35:47;98461.56;;;28.96;40.13
59531;BME280;45349;48.692;8.186;2022-08-04T08:38:18;98459.91;;;29.05;39.62
59531;BME280;45349;48.692;8.186;2022-08-04T08:40:50;98458.53;;;29.13;38.87
59531;BME280;45349;48.692;8.186;2022-08-04T08:43:31;98456.31;;;29.20;38.56
59531;BME280;45349;48.692;8.186;2022-08-04T08:46:29;98455.78;;;29.23;37.68
59531;BME280;45349;48.692;8.186;2022-08-04T08:49:12;98454.09;;;29.33;37.65
59531;BME280;45349;48.692;8.186;2022-08-04T08:51:58;98458.63;;;29.37;37.89
59531;BME280;45349;48.692;8.186;2022-08-04T08:54:46;98463.66;;;29.54;37.96
59531;BME280;45349;48.692;8.186;2022-08-04T08:57:32;98460.38;;;29.63;37.35
59531;BME280;45349;48.692;8.186;2022-08-04T09:00:10;98466.75;;;29.72;36.58
59531;BME280;45349;48.692;8.186;2022-08-04T09:03:11;98469.22;;;29.98;36.23
59531;BME280;45349;48.692;8.186;2022-08-04T09:06:06;98456.78;;;30.07;36.18
59531;BME280;45349;48.692;8.186;2022-08-04T09:08:54;98463.63;;;30.24;35.44
59531;BME280;45349;48.692;8.186;2022-08-04T09:11:29;98464.94;;;30.26;36.04
59531;BME280;45349;48.692;8.186;2022-08-04T09:14:06;98457.50;;;30.42;35.41
59531;BME280;45349;48.692;8.186;2022-08-04T09:16:38;98450.41;;;30.52;34.54
59531;BME280;45349;48.692;8.186;2022-08-04T09:19:11;98468.16;;;30.53;34.50
59531;BME280;45349;48.692;8.186;2022-08-04T09:21:50;98459.78;;;30.54;34.52
59531;BME280;45349;48.692;8.186;2022-08-04T09:24:21;98466.16;;;30.63;35.00
59531;BME280;45349;48.692;8.186;2022-08-04T09:26:56;98459.28;;;30.76;34.47
59531;BME280;45349;48.692;8.186;2022-08-04T09:29:32;98457.91;;;30.79;34.27
59531;BME280;45349;48.692;8.186;2022-08-04T09:32:06;98462.53;;;30.98;34.20
59531;BME280;45349;48.692;8.186;2022-08-04T09:34:42;98462.66;;;31.06;34.00
59531;BME280;45349;48.692;8.186;2022-08-04T09:37:19;98461.97;;;31.20;32.70
59531;BME280;45349;48.692;8.186;2022-08-04T09:39:55;98452.13;;;31.29;33.20
59531;BME280;45349;48.692;8.186;2022-08-04T09:42:35;98468.44;;;31.38;32.70
59531;BME280;45349;48.692;8.186;2022-08-04T09:45:10;98464.88;;;31.43;32.04
59531;BME280;45349;48.692;8.186;2022-08-04T09:47:45;98459.41;;;31.48;32.70
59531;BME280;45349;48.692;8.186;2022-08-04T09:50:27;98459.06;;;31.35;32.62
59531;BME280;45349;48.692;8.186;2022-08-04T09:53:01;98466.25;;;31.40;31.84
59531;BME280;45349;48.692;8.186;2022-08-04T09:55:45;98456.63;;;31.34;32.04
59531;BME280;45349;48.692;8.186;2022-08-04T09:58:19;98464.38;;;31.41;32.66
59531;BME280;45349;48.692;8.186;2022-08-04T10:00:54;98455.63;;;31.49;32.74
59531;BME280;45349;48.692;8.186;2022-08-04T10:03:23;98450.72;;;31.51;31.71
59531;BME280;45349;48.692;8.186;2022-08-04T10:06:05;98451.94;;;31.59;31.17
59531;BME280;45349;48.692;8.186;2022-08-04T10:08:53;98448.00;;;31.70;29.49
59531;BME280;45349;48.692;8.186;2022-08-04T10:11:32;98451.72;;;31.74;29.57
59531;BME280;45349;48.692;8.186;2022-08-04T10:14:12;98450.38;;;31.91;28.71
59531;BME280;45349;48.692;8.186;2022-08-04T10:16:47;98444.75;;;31.87;29.59
59531;BME280;45349;48.692;8.186;2022-08-04T10:19:25;98440.00;;;31.98;28.71
59531;BME280;45349;48.692;8.186;2022-08-04T10:22:08;98443.56;;;31.93;28.68
59531;BME280;45349;48.692;8.186;2022-08-04T10:24:49;98439.72;;;32.14;28.66
59531;BME280;45349;48.692;8.186;2022-08-04T10:27:24;98436.75;;;32.29;28.16
59531;BME280;45349;48.692;8.186;2022-08-04T10:29:56;98442.25;;;32.38;28.89
59531;BME280;45349;48.692;8.186;2022-08-04T10:32:29;98432.03;;;32.49;27.62
59531;BME280;45349;48.692;8.186;2022-08-04T10:35:08;98432.94;;;32.58;28.17
59531;BME280;45349;48.692;8.186;2022-08-04T10:37:41;98431.31;;;32.71;26.59
59531;BME280;45349;48.692;8.186;2022-08-04T10:40:16;98426.69;;;32.72;27.67
59531;BME280;45349;48.692;8.186;2022-08-04T10:43:11;98431.41;;;32.80;28.87
59531;BME280;45349;48.692;8.186;2022-08-04T10:45:45;98421.91;;;32.82;28.15
59531;BME280;45349;48.692;8.186;2022-08-04T10:48:19;98423.22;;;32.85;28.77
59531;BME280;45349;48.692;8.186;2022-08-04T10:50:58;98421.44;;;33.03;27.82
59531;BME280;45349;48.692;8.186;2022-08-04T10:53:28;98417.16;;;33.02;27.82
59531;BME280;45349;48.692;8.186;2022-08-04T10:56:01;98420.16;;;33.01;27.77
59531;BME280;45349;48.692;8.186;2022-08-04T10:58:35;98418.84;;;32.98;26.79
59531;BME280;45349;48.692;8.186;2022-08-04T11:01:09;98428.16;;;33.06;27.47
59531;BME280;45349;48.692;8.186;2022-08-04T11:03:46;98429.03;;;33.15;27.44
59531;BME280;45349;48.692;8.186;2022-08-04T11:06:16;98424.25;;;33.12;27.50
59531;BME280;45349;48.692;8.186;2022-08-04T11:08:47;98427.50;;;33.23;27.21
59531;BME280;45349;48.692;8.186;2022-08-04T11:11:23;98424.78;;;33.23;26.79
59531;BME280;45349;48.692;8.186;2022-08-04T11:13:58;98425.72;;;33.18;27.31
59531;BME280;45349;48.692;8.186;2022-08-04T11:16:28;98423.06;;;33.27;27.24
59531;BME280;45349;48.692;8.186;2022-08-04T11:19:14;98424.44;;;33.38;27.10
59531;BME280;45349;48.692;8.186;2022-08-04T11:21:53;98422.00;;;33.51;26.15
59531;BME280;45349;48.692;8.186;2022-08-04T11:24:25;98412.59;;;33.48;27.10
59531;BME280;45349;48.692;8.186;2022-08-04T11:26:59;98412.78;;;33.52;27.57
59531;BME280;45349;48.692;8.186;2022-08-04T11:29:50;98420.66;;;33.62;25.68
59531;BME280;45349;48.692;8.186;2022-08-04T11:32:25;98418.91;;;33.66;26.01
59531;BME280;45349;48.692;8.186;2022-08-04T11:35:02;98415.59;;;33.69;27.08
59531;BME280;45349;48.692;8.186;2022-08-04T11:37:40;98422.50;;;33.84;26.37
59531;BME280;45349;48.692;8.186;2022-08-04T11:40:11;98418.75;;;33.94;25.68
59531;BME280;45349;48.692;8.186;2022-08-04T11:42:51;98415.13;;;33.99;25.18
59531;BME280;45349;48.692;8.186;2022-08-04T11:45:23;98426.31;;;34.06;25.75
59531;BME280;45349;48.692;8.186;2022-08-04T11:47:56;98416.41;;;34.02;24.36
59531;BME280;45349;48.692;8.186;2022-08-04T11:50:30;98416.44;;;34.10;24.89
59531;BME280;45349;48.692;8.186;2022-08-04T11:53:00;98424.59;;;34.19;24.76
59531;BME280;45349;48.692;8.186;2022-08-04T11:55:28;98422.84;;;34.23;24.86
59531;BME280;45349;48.692;8.186;2022-08-04T11:57:58;98416.78;;;34.18;25.98
59531;BME280;45349;48.692;8.186;2022-08-04T12:00:28;98411.09;;;34.37;24.54
59531;BME280;45349;48.692;8.186;2022-08-04T12:03:17;98401.25;;;34.41;24.29
59531;BME280;45349;48.692;8.186;2022-08-04T12:05:53;98407.13;;;34.34;25.04
59531;BME280;45349;48.692;8.186;2022-08-04T12:08:35;98405.41;;;34.38;24.33
59531;BME280;45349;48.692;8.186;2022-08-04T12:11:15;98403.97;;;34.50;25.23
59531;BME280;45349;48.692;8.186;2022-08-04T12:13:53;98395.19;;;34.44;24.27
59531;BME280;45349;48.692;8.186;2022-08-04T12:16:26;98398.94;;;34.66;24.88
59531;BME280;45349;48.692;8.186;2022-08-04T12:18:57;98393.66;;;34.69;25.03
59531;BME280;45349;48.692;8.186;2022-08-04T12:21:30;98393.50;;;34.74;24.66
59531;BME280;45349;48.692;8.186;2022-08-04T12:24:01;98397.19;;;34.79;24.34
59531;BME280;45349;48.692;8.186;2022-08-04T12:26:35;98396.69;;;34.68;24.14
59531;BME280;45349;48.692;8.186;2022-08-04T12:29:05;98393.19;;;34.67;23.95
59531;BME280;45349;48.692;8.186;2022-08-04T12:31:35;98391.44;;;34.63;23.83
59531;BME280;45349;48.692;8.186;2022-08-04T12:34:07;98387.13;;;34.88;22.98
59531;BME280;45349;48.692;8.186;2022-08-04T12:36:37;98377.44;;;34.96;21.84
59531;BME280;45349;48.692;8.186;2022-08-04T12:39:09;98383.00;;;35.08;21.82
59531;BME280;45349;48.692;8.186;2022-08-04T12:41:39;98379.50;;;34.99;21.81
59531;BME280;45349;48.692;8.186;2022-08-04T12:44:12;98379.00;;;35.14;20.87
59531;BME280;45349;48.692;8.186;2022-08-04T12:46:44;98368.34;;;35.09;21.90
59531;BME280;45349;48.692;8.186;2022-08-04T12:49:12;98366.88;;;35.21;21.58
59531;BME280;45349;48.692;8.186;2022-08-04T12:51:43;98368.47;;;35.30;21.41
59531;BME280;45349;48.692;8.186;2022-08-04T12:54:10;98373.75;;;35.36;20.54
59531;BME280;45349;48.692;8.186;2022-08-04T12:56:38;98369.09;;;35.36;20.56
59531;BME280;45349;48.692;8.186;2022-08-04T12:59:07;98362.41;;;35.34;20.69
59531;BME280;45349;48.692;8.186;2022-08-04T13:01:37;98365.56;;;35.53;19.58
59531;BME280;45349;48.692;8.186;2022-08-04T13:04:11;98369.72;;;35.51;19.91
59531;BME280;45349;48.692;8.186;2022-08-04T13:06:40;98362.53;;;35.55;19.52
59531;BME280;45349;48.692;8.186;2022-08-04T13:09:09;98370.00;;;35.67;20.33
59531;BME280;45349;48.692;8.186;2022-08-04T13:11:41;98363.06;;;35.87;19.95
59531;BME280;45349;48.692;8.186;2022-08-04T13:14:11;98363.63;;;35.63;20.05
59531;BME280;45349;48.692;8.186;2022-08-04T13:16:40;98361.72;;;35.63;20.98
59531;BME280;45349;48.692;8.186;2022-08-04T13:19:08;98358.78;;;35.77;19.59
59531;BME280;45349;48.692;8.186;2022-08-04T13:21:41;98342.56;;;35.59;20.09
59531;BME280;45349;48.692;8.186;2022-08-04T13:24:11;98345.84;;;35.83;19.98
59531;BME280;45349;48.692;8.186;2022-08-04T13:26:49;98333.34;;;35.99;19.68
59531;BME280;45349;48.692;8.186;2022-08-04T13:29:17;98342.00;;;36.14;19.58
59531;BME280;45349;48.692;8.186;2022-08-04T13:31:46;98338.78;;;36.20;19.43
59531;BME280;45349;48.692;8.186;2022-08-04T13:34:14;98332.69;;;36.24;19.53
59531;BME280;45349;48.692;8.186;2022-08-04T13:36:42;98330.94;;;36.49;17.88
59531;BME280;45349;48.692;8.186;2022-08-04T13:39:14;98330.66;;;36.42;17.27
59531;BME280;45349;48.692;8.186;2022-08-04T13:41:44;98330.34;;;36.43;17.61
59531;BME280;45349;48.692;8.186;2022-08-04T13:44:12;98322.31;;;36.47;17.57
59531;BME280;45349;48.692;8.186;2022-08-04T13:46:44;98329.41;;;36.39;17.74
59531;BME280;45349;48.692;8.186;2022-08-04T13:49:15;98329.63;;;36.55;17.40
59531;BME280;45349;48.692;8.186;2022-08-04T13:51:46;98322.31;;;36.47;16.76
59531;BME280;45349;48.692;8.186;2022-08-04T13:54:14;98316.59;;;36.48;17.12
59531;BME280;45349;48.692;8.186;2022-08-04T13:56:45;98316.41;;;36.45;17.59